Time;durP1;ratioP1;P1;durP2;ratioP2;P2;SDS_P1;SDS_P2;PMS_P1;PMS_P2;Temp;Humidity;BMP_temperature;BMP_pressure;BME280_temperature;BME280_humidity;BME280_pressure;Samples;Min_cycle;Max_cycle;Signal;HPM_P1;HPM_P2
2024/03/07 00:01:47;;;;;;;11.50;7.70;;;;;;;2.77;100.00;102452.41;5022319;28;20824;-76
2024/03/07 00:04:12;;;;;;;14.10;8.77;;;;;;;4.08;100.00;102649.03;5029462;28;21030;-76
2024/03/07 00:06:38;;;;;;;11.63;7.63;;;;;;;3.03;100.00;102464.66;5032947;28;20583;-76
2024/03/07 00:09:06;;;;;;;10.60;7.13;;;;;;;3.23;100.00;102513.59;5042104;28;20256;-76
2024/03/07 00:11:31;;;;;;;11.23;8.10;;;;;;;4.12;100.00;102665.59;5031064;28;20181;-76
2024/03/07 00:13:57;;;;;;;11.57;8.23;;;;;;;2.59;100.00;102422.75;5046496;28;20434;-76
2024/03/07 00:16:22;;;;;;;10.77;7.77;;;;;;;1.79;100.00;102266.84;5043063;28;20213;-76
2024/03/07 00:18:48;;;;;;;13.40;8.93;;;;;;;4.03;100.00;102636.06;5040443;28;20214;-76
2024/03/07 00:21:13;;;;;;;12.13;8.93;;;;;;;1.35;100.00;102215.22;5042721;28;20201;-76
2024/03/07 00:23:39;;;;;;;14.63;8.57;;;;;;;2.77;100.00;102500.94;5045057;28;20249;-76
2024/03/07 00:26:05;;;;;;;11.27;8.13;;;;;;;4.18;100.00;102729.72;5027300;28;20182;-76
2024/03/07 00:28:32;;;;;;;11.63;7.90;;;;;;;3.88;100.00;102662.88;5033915;28;20262;-76
2024/03/07 00:30:58;;;;;;;11.13;8.27;;;;;;;3.60;100.00;102611.78;5024639;28;21011;-76
2024/03/07 00:33:25;;;;;;;12.40;8.60;;;;;;;3.52;100.00;102559.25;5027618;28;20927;-76
2024/03/07 00:35:50;;;;;;;11.97;8.23;;;;;;;2.04;100.00;102370.03;5026500;28;20458;-76
2024/03/07 00:38:16;;;;;;;12.60;8.27;;;;;;;1.98;100.00;102351.94;5041438;28;20462;-76
2024/03/07 00:40:41;;;;;;;11.13;8.07;;;;;;;4.05;100.00;102683.75;5023333;28;20210;-76
2024/03/07 00:43:07;;;;;;;12.07;8.10;;;;;;;3.09;100.00;102554.34;5040777;28;20179;-76
2024/03/07 00:45:32;;;;;;;11.80;8.67;;;;;;;2.74;100.00;102495.88;5036063;28;20680;-76
2024/03/07 00:47:58;;;;;;;11.90;8.23;;;;;;;3.33;100.00;102573.00;5041040;28;20204;-76
2024/03/07 00:50:25;;;;;;;12.17;8.03;;;;;;;2.77;100.00;102542.50;5026988;28;20184;-76
2024/03/07 00:52:50;;;;;;;12.00;7.70;;;;;;;2.54;100.00;102515.78;5024609;28;20526;-76
2024/03/07 00:55:18;;;;;;;13.40;9.13;;;;;;;1.22;100.00;102293.69;5041321;28;20966;-76
2024/03/07 00:57:45;;;;;;;13.00;8.40;;;;;;;2.52;100.00;102458.56;5037830;28;20230;-76
2024/03/07 01:00:13;;;;;;;13.30;8.60;;;;;;;2.62;100.00;102492.28;5025436;28;20464;-76
2024/03/07 01:02:43;;;;;;;13.67;8.47;;;;;;;4.26;100.00;102814.19;5025835;28;20860;-76
2024/03/07 01:05:09;;;;;;;12.20;8.20;;;;;;;1.94;100.00;102443.09;5031379;28;20430;-79
2024/03/07 01:07:37;;;;;;;12.30;8.30;;;;;;;2.90;100.00;102562.75;5043617;28;20488;-79
2024/03/07 01:10:05;;;;;;;13.33;8.50;;;;;;;2.34;100.00;102503.06;5021957;28;20505;-79
2024/03/07 01:12:31;;;;;;;11.80;8.33;;;;;;;2.47;100.00;102536.56;5028915;28;20519;-78
2024/03/07 01:14:57;;;;;;;11.93;8.20;;;;;;;1.10;100.00;102333.19;5038569;28;20445;-78
2024/03/07 01:17:24;;;;;;;12.80;8.50;;;;;;;1.75;100.00;102455.84;5028992;28;21451;-78
2024/03/07 01:19:49;;;;;;;11.90;7.97;;;;;;;3.24;100.00;102695.66;5024767;28;20288;-78
2024/03/07 01:22:15;;;;;;;14.63;8.10;;;;;;;3.94;100.00;102796.06;5040538;28;20874;-78
2024/03/07 01:24:40;;;;;;;10.93;7.50;;;;;;;1.26;100.00;102383.22;5025237;28;20185;-78
2024/03/07 01:27:06;;;;;;;12.20;8.00;;;;;;;1.95;100.00;102494.22;5038426;28;20180;-78
2024/03/07 01:29:34;;;;;;;13.80;8.00;;;;;;;1.71;100.00;102510.75;5040328;28;20231;-79
2024/03/07 01:32:03;;;;;;;13.63;9.10;;;;;;;1.64;100.00;102519.19;5024539;28;20198;-78
2024/03/07 01:34:28;;;;;;;10.83;7.73;;;;;;;1.90;100.00;102584.47;5027535;28;20934;-78
2024/03/07 01:36:58;;;;;;;13.40;8.67;;;;;;;2.49;100.00;102701.53;5041627;28;20463;-78
2024/03/07 01:39:24;;;;;;;12.30;8.27;;;;;;;0.70;100.00;102410.66;5023493;28;20195;-78
2024/03/07 01:41:49;;;;;;;12.60;8.10;;;;;;;1.54;100.00;102563.91;5028118;28;20437;-78
2024/03/07 01:44:15;;;;;;;12.50;8.80;;;;;;;0.61;100.00;102381.22;5046438;28;20187;-78
2024/03/07 01:46:43;;;;;;;11.77;8.20;;;;;;;3.00;100.00;102796.25;5021866;28;20176;-78
2024/03/07 01:49:12;;;;;;;12.57;9.33;;;;;;;1.21;100.00;102527.22;5023196;28;20206;-78
2024/03/07 01:51:38;;;;;;;11.97;7.83;;;;;;;3.48;100.00;102905.34;5043078;28;20437;-79
2024/03/07 01:54:13;;;;;;;12.50;8.67;;;;;;;1.44;100.00;102576.84;5039636;28;20439;-78
2024/03/07 01:56:39;;;;;;;14.20;8.90;;;;;;;0.17;100.00;102339.97;5025258;28;20588;-78
2024/03/07 01:59:07;;;;;;;12.83;8.70;;;;;;;2.51;100.00;102735.88;5027914;28;20459;-78
2024/03/07 02:01:36;;;;;;;12.20;8.37;;;;;;;0.54;100.00;102442.44;5032375;28;20979;-79
2024/03/07 02:04:01;;;;;;;11.97;8.40;;;;;;;1.20;100.00;102546.66;5049754;28;20437;-78
2024/03/07 02:06:32;;;;;;;14.30;9.73;;;;;;;2.14;100.00;102635.00;5050188;28;20422;-78
2024/03/07 02:09:04;;;;;;;11.80;8.63;;;;;;;1.38;100.00;102518.22;5045237;28;20214;-78
2024/03/07 02:11:35;;;;;;;14.23;8.30;;;;;;;1.62;100.00;102606.59;5046025;28;20572;-78
2024/03/07 02:14:00;;;;;;;12.37;9.00;;;;;;;1.04;100.00;102492.13;5047656;28;20484;-79
2024/03/07 02:16:31;;;;;;;11.40;7.90;;;;;;;2.30;100.00;102689.59;5046996;28;20539;-78
2024/03/07 02:19:01;;;;;;;13.20;8.80;;;;;;;3.30;100.00;102864.97;5043328;28;20199;-79
2024/03/07 02:21:27;;;;;;;12.57;8.63;;;;;;;1.49;100.00;102569.47;5044842;28;20463;-79
2024/03/07 02:23:55;;;;;;;14.67;8.53;;;;;;;3.27;100.00;102897.03;5031316;28;20950;-78
2024/03/07 02:26:20;;;;;;;12.70;9.10;;;;;;;-0.16;100.00;102278.72;5045410;28;20184;-78
2024/03/07 02:28:46;;;;;;;12.10;8.40;;;;;;;-0.53;100.00;102260.69;5041616;28;20958;-78
2024/03/07 02:31:12;;;;;;;13.37;8.83;;;;;;;1.29;100.00;102560.16;5046863;28;20184;-77
2024/03/07 02:33:40;;;;;;;11.80;7.93;;;;;;;1.34;100.00;102559.88;5039610;28;20184;-78
2024/03/07 02:36:05;;;;;;;11.47;8.13;;;;;;;3.22;100.00;102887.66;5030269;28;20470;-78
2024/03/07 02:38:34;;;;;;;12.90;9.43;;;;;;;0.98;100.00;102481.06;5033355;28;20461;-79
2024/03/07 02:41:00;;;;;;;13.90;8.93;;;;;;;-0.59;100.00;102228.59;5030242;28;20203;-78
2024/03/07 02:43:25;;;;;;;13.97;9.00;;;;;;;0.95;100.00;102475.97;5032228;28;20469;-79
2024/03/07 02:45:56;;;;;;;11.93;8.83;;;;;;;1.81;100.00;102685.63;5044527;28;20194;-78
2024/03/07 02:48:24;;;;;;;15.83;9.87;;;;;;;0.79;100.00;102486.66;5032457;28;20207;-78
2024/03/07 02:50:52;;;;;;;13.97;9.63;;;;;;;1.87;100.00;102716.16;5029803;28;20487;-78
2024/03/07 02:53:17;;;;;;;14.37;8.77;;;;;;;0.00;100.00;102406.09;5050441;28;20430;-78
2024/03/07 02:55:45;;;;;;;14.90;9.00;;;;;;;1.52;100.00;102655.69;5033994;28;20950;-79
2024/03/07 02:58:15;;;;;;;12.13;9.20;;;;;;;-0.29;100.00;102320.78;5047611;28;20211;-79
2024/03/07 03:00:41;;;;;;;13.10;9.83;;;;;;;0.59;100.00;102501.94;5024211;28;20592;-78
2024/03/07 03:03:09;;;;;;;14.20;9.53;;;;;;;1.05;100.00;102574.91;5048704;28;20518;-79
2024/03/07 03:05:37;;;;;;;11.93;9.00;;;;;;;1.02;100.00;102612.94;5042580;28;20207;-79
2024/03/07 03:08:06;;;;;;;15.13;10.77;;;;;;;1.55;100.00;102726.94;5032186;28;20473;-79
2024/03/07 03:10:37;;;;;;;13.40;9.53;;;;;;;1.20;100.00;102612.75;5033049;28;20951;-79
2024/03/07 03:13:05;;;;;;;14.33;9.83;;;;;;;0.61;100.00;102552.03;5030120;28;20445;-79
2024/03/07 03:15:35;;;;;;;14.03;10.67;;;;;;;1.01;100.00;102591.88;5030629;28;20427;-79
2024/03/07 03:18:00;;;;;;;15.27;10.93;;;;;;;-0.11;100.00;102405.91;5033882;28;20461;-79
2024/03/07 03:20:33;;;;;;;14.47;10.40;;;;;;;1.52;100.00;102643.31;5030257;28;20430;-78
2024/03/07 03:23:01;;;;;;;14.87;10.13;;;;;;;1.68;100.00;102677.63;5034245;28;20191;-79
2024/03/07 03:25:27;;;;;;;13.90;10.13;;;;;;;-0.13;100.00;102415.69;5041211;28;20441;-79
2024/03/07 03:27:52;;;;;;;14.47;10.87;;;;;;;-0.14;100.00;102354.16;5045430;28;20462;-79
2024/03/07 03:30:21;;;;;;;12.00;9.30;;;;;;;0.34;100.00;102480.59;5033153;28;20184;-79
2024/03/07 03:32:52;;;;;;;14.63;9.93;;;;;;;2.15;100.00;102779.66;5031844;28;20196;-79
2024/03/07 03:35:18;;;;;;;14.37;10.73;;;;;;;-0.62;100.00;102350.84;5048677;28;20465;-79
2024/03/07 03:37:51;;;;;;;15.37;10.40;;;;;;;0.73;100.00;102508.19;5034290;28;20961;-78
2024/03/07 03:40:21;;;;;;;15.13;9.70;;;;;;;0.66;100.00;102549.94;5032267;28;20917;-79
2024/03/07 03:42:47;;;;;;;15.07;10.73;;;;;;;-0.36;100.00;102344.03;5043568;28;20442;-78
2024/03/07 03:45:15;;;;;;;14.03;10.30;;;;;;;-0.23;100.00;102381.09;5030363;28;20465;-78
2024/03/07 03:47:43;;;;;;;13.90;9.80;;;;;;;1.81;100.00;102730.59;5034913;28;20477;-79
2024/03/07 03:50:11;;;;;;;12.80;9.80;;;;;;;-0.46;100.00;102385.06;5033790;28;20418;-78
2024/03/07 03:52:37;;;;;;;14.40;10.37;;;;;;;1.05;100.00;102596.03;5032162;28;20442;-79
2024/03/07 03:55:06;;;;;;;14.70;10.53;;;;;;;-0.55;100.00;102360.09;5053261;28;20433;-79
2024/03/07 03:57:36;;;;;;;13.50;9.97;;;;;;;1.42;100.00;102724.19;5035782;28;20475;-79
2024/03/07 04:00:16;;;;;;;15.13;10.43;;;;;;;0.98;100.00;102597.34;5054646;28;20526;-79
2024/03/07 04:02:43;;;;;;;14.37;10.80;;;;;;;-0.61;100.00;102310.34;5034803;28;20974;-79
2024/03/07 04:05:22;;;;;;;17.00;12.60;;;;;;;2.56;100.00;102884.78;5052769;28;20438;-78
2024/03/07 04:07:50;;;;;;;15.90;11.30;;;;;;;0.51;100.00;102587.84;5042328;28;21018;-79
2024/03/07 04:10:17;;;;;;;17.70;12.43;;;;;;;-0.93;100.00;102333.31;5047991;28;20503;-79
2024/03/07 04:12:48;;;;;;;17.10;12.50;;;;;;;-0.94;100.00;102305.28;5028753;28;20450;-79
2024/03/07 04:15:21;;;;;;;15.87;12.20;;;;;;;-0.88;100.00;102320.72;5046419;28;20470;-79
2024/03/07 04:17:51;;;;;;;19.10;12.27;;;;;;;0.24;100.00;102563.91;5048599;28;20486;-79
2024/03/07 04:20:19;;;;;;;16.53;12.00;;;;;;;-0.76;100.00;102412.22;5048211;28;20442;-79
2024/03/07 04:22:47;;;;;;;21.20;14.40;;;;;;;0.29;100.00;102544.22;5035608;28;20529;-79
2024/03/07 04:25:12;;;;;;;19.93;13.50;;;;;;;0.61;100.00;102634.75;5056859;28;20441;-79
2024/03/07 04:27:43;;;;;;;18.30;13.87;;;;;;;0.55;100.00;102615.75;5054215;28;20462;-79
2024/03/07 04:30:09;;;;;;;18.10;13.23;;;;;;;2.43;100.00;102955.34;5048809;28;20190;-79
2024/03/07 04:32:41;;;;;;;20.20;13.87;;;;;;;1.27;100.00;102709.22;5051619;28;20458;-79
2024/03/07 04:35:07;;;;;;;19.73;13.80;;;;;;;0.41;100.00;102625.34;5037231;28;20443;-79
2024/03/07 04:37:44;;;;;;;23.47;15.80;;;;;;;-0.29;100.00;102495.69;5036786;28;20480;-79
2024/03/07 04:40:15;;;;;;;21.70;16.70;;;;;;;-0.35;100.00;102448.56;5054128;28;20436;-79
2024/03/07 04:42:51;;;;;;;25.63;16.87;;;;;;;-0.40;100.00;102500.72;5050686;28;20919;-79
2024/03/07 04:48:40;;;;;;;33.60;22.80;;;;;;;2.62;100.00;102925.94;5045973;28;20521;-71
2024/03/07 04:51:06;;;;;;;28.90;20.47;;;;;;;2.55;100.00;102928.13;5043484;28;20993;-71
2024/03/07 04:53:31;;;;;;;31.50;22.97;;;;;;;2.00;100.00;102833.56;5040693;28;20433;-70
2024/03/07 04:55:57;;;;;;;30.37;23.20;;;;;;;1.92;100.00;102846.41;5038426;28;20591;-71
2024/03/07 04:58:22;;;;;;;30.80;22.67;;;;;;;1.98;100.00;102875.97;5038467;28;20192;-70
2024/03/07 05:00:48;;;;;;;31.70;23.13;;;;;;;2.51;100.00;102957.53;5042962;28;20199;-68
2024/03/07 05:03:13;;;;;;;35.10;22.00;;;;;;;2.07;100.00;102890.44;5041380;28;20203;-69
2024/03/07 05:05:40;;;;;;;31.57;23.63;;;;;;;2.44;100.00;102965.88;5047423;28;20214;-69
2024/03/07 05:08:06;;;;;;;30.43;21.57;;;;;;;1.83;100.00;102886.66;5046046;28;20183;-68
2024/03/07 05:10:31;;;;;;;32.03;23.27;;;;;;;2.76;100.00;103002.78;5042235;28;20500;-68
2024/03/07 05:12:59;;;;;;;33.97;23.47;;;;;;;2.54;100.00;102989.97;5044760;28;20183;-68
2024/03/07 05:15:25;;;;;;;32.70;22.33;;;;;;;2.04;100.00;102949.72;5044937;28;20565;-68
2024/03/07 05:17:56;;;;;;;28.93;22.43;;;;;;;2.43;100.00;103003.91;5037990;28;20612;-68
2024/03/07 05:20:21;;;;;;;36.03;23.77;;;;;;;2.15;100.00;102966.78;5044166;28;20479;-68
2024/03/07 05:22:52;;;;;;;32.20;23.80;;;;;;;2.39;100.00;103018.25;5047612;28;20439;-68
2024/03/07 05:25:22;;;;;;;33.83;22.47;;;;;;;2.04;100.00;102980.63;5047862;28;20252;-68
2024/03/07 05:27:51;;;;;;;35.63;25.00;;;;;;;2.47;100.00;103057.53;5049989;28;20442;-68
2024/03/07 05:30:16;;;;;;;32.43;23.80;;;;;;;2.30;100.00;103045.28;5037315;28;20480;-68
2024/03/07 05:32:43;;;;;;;37.07;25.33;;;;;;;2.41;100.00;103050.81;5046285;28;20809;-68
2024/03/07 05:35:09;;;;;;;34.73;25.17;;;;;;;2.57;100.00;103093.13;5045575;28;20218;-68
2024/03/07 05:37:34;;;;;;;38.77;25.90;;;;;;;1.80;100.00;102972.34;5036842;28;20984;-70
2024/03/07 05:40:02;;;;;;;32.27;22.90;;;;;;;2.52;100.00;103102.28;5041397;28;20492;-68
2024/03/07 05:42:29;;;;;;;28.93;21.93;;;;;;;2.16;100.00;103053.19;5046209;28;20179;-70
2024/03/07 05:44:55;;;;;;;33.17;24.53;;;;;;;2.41;100.00;103113.53;5050468;28;20445;-70
2024/03/07 05:47:21;;;;;;;30.50;22.67;;;;;;;2.47;100.00;103147.63;5044898;28;20445;-70
2024/03/07 05:49:47;;;;;;;31.23;22.80;;;;;;;2.00;100.00;103082.38;5045733;28;20191;-70
2024/03/07 05:52:12;;;;;;;34.40;24.50;;;;;;;2.24;100.00;103131.25;5043518;28;21051;-70
2024/03/07 05:54:38;;;;;;;33.60;23.03;;;;;;;2.40;100.00;103139.19;5030841;28;20192;-70
2024/03/07 05:57:06;;;;;;;32.27;22.57;;;;;;;1.49;100.00;103019.06;5044309;28;20288;-70
2024/03/07 05:59:32;;;;;;;32.13;23.23;;;;;;;2.08;100.00;103117.16;5029359;28;20283;-68
2024/03/07 06:01:58;;;;;;;31.50;22.37;;;;;;;1.67;100.00;103048.06;5027216;28;20554;-68
2024/03/07 06:04:23;;;;;;;31.70;23.63;;;;;;;1.46;100.00;103015.75;5021717;28;20972;-68
2024/03/07 06:06:49;;;;;;;37.57;23.03;;;;;;;2.31;100.00;103170.63;5030904;28;20544;-68
2024/03/07 06:09:21;;;;;;;33.20;23.70;;;;;;;1.66;100.00;103068.38;5029913;28;20196;-68
2024/03/07 06:11:47;;;;;;;35.43;23.40;;;;;;;1.81;100.00;103091.31;5029420;28;20675;-67
2024/03/07 06:14:13;;;;;;;30.70;21.90;;;;;;;2.16;100.00;103161.75;5032804;28;20459;-68
2024/03/07 06:16:39;;;;;;;31.70;22.00;;;;;;;1.97;100.00;103146.06;5034159;28;21207;-68
2024/03/07 06:19:07;;;;;;;30.40;22.17;;;;;;;2.37;100.00;103200.28;5031701;28;20303;-68
2024/03/07 06:21:33;;;;;;;31.70;22.70;;;;;;;2.35;100.00;103204.78;5027805;28;20462;-68
2024/03/07 06:24:03;;;;;;;33.27;23.40;;;;;;;2.30;100.00;103211.28;5029509;28;20434;-67
2024/03/07 06:26:45;;;;;;;34.93;24.90;;;;;;;2.25;100.00;103216.84;5031446;28;20450;-68
2024/03/07 06:29:15;;;;;;;31.47;21.90;;;;;;;1.63;100.00;103139.13;5030284;28;20438;-68
2024/03/07 06:31:41;;;;;;;31.70;23.07;;;;;;;2.33;100.00;103238.44;5035143;28;20468;-67
2024/03/07 06:34:08;;;;;;;32.27;22.53;;;;;;;2.07;100.00;103194.88;5027315;28;20995;-68
2024/03/07 06:36:34;;;;;;;30.40;23.03;;;;;;;1.61;100.00;103112.75;5028284;28;20474;-68
2024/03/07 06:38:59;;;;;;;34.63;22.93;;;;;;;1.72;100.00;103130.69;5028229;28;20453;-68
2024/03/07 06:41:25;;;;;;;29.50;20.90;;;;;;;2.01;100.00;103172.25;5030502;28;20463;-68
2024/03/07 06:43:50;;;;;;;33.63;20.97;;;;;;;2.54;100.00;103236.38;5028434;28;20184;-68
2024/03/07 06:46:16;;;;;;;30.70;21.37;;;;;;;1.95;100.00;103138.19;5031390;28;20194;-67
2024/03/07 06:48:42;;;;;;;30.37;21.70;;;;;;;2.24;100.00;103165.66;5030107;28;20566;-68
2024/03/07 06:51:08;;;;;;;29.40;19.87;;;;;;;1.96;100.00;103109.94;5028259;28;20285;-68
2024/03/07 06:53:33;;;;;;;29.63;20.40;;;;;;;2.53;100.00;103207.34;5028617;28;20929;-67
2024/03/07 06:56:00;;;;;;;29.77;21.37;;;;;;;1.77;100.00;103084.50;5025528;28;20188;-67
2024/03/07 06:58:26;;;;;;;28.70;20.30;;;;;;;2.00;100.00;103114.97;5033816;28;20204;-68
2024/03/07 07:00:54;;;;;;;27.07;19.67;;;;;;;2.42;100.00;103165.56;5028624;28;21043;-68
2024/03/07 07:03:20;;;;;;;27.20;19.33;;;;;;;2.45;100.00;103175.97;5037673;28;20338;-68
2024/03/07 07:05:46;;;;;;;27.07;19.20;;;;;;;1.93;100.00;103099.53;5027644;28;20496;-68
2024/03/07 07:08:13;;;;;;;29.27;19.90;;;;;;;1.97;100.00;103101.06;5026133;28;20446;-68
2024/03/07 07:10:40;;;;;;;27.47;19.30;;;;;;;2.60;100.00;103192.78;5027749;28;20296;-68
2024/03/07 07:13:06;;;;;;;27.37;18.63;;;;;;;2.71;100.00;103208.91;5029671;28;20446;-68
2024/03/07 07:15:32;;;;;;;29.03;19.47;;;;;;;2.65;100.00;103214.56;5027809;28;20452;-68
2024/03/07 07:17:59;;;;;;;27.87;19.27;;;;;;;2.57;100.00;103196.44;5031005;28;20490;-68
2024/03/07 07:20:27;;;;;;;27.03;18.00;;;;;;;2.56;100.00;103172.72;5033496;28;20466;-68
2024/03/07 07:22:53;;;;;;;27.60;19.20;;;;;;;2.71;100.00;103203.59;5031288;28;20517;-68
2024/03/07 07:25:20;;;;;;;27.50;17.67;;;;;;;2.81;100.00;103226.00;5031418;28;20857;-68
2024/03/07 07:27:45;;;;;;;28.23;19.10;;;;;;;2.76;100.00;103222.75;5029646;28;20177;-68
2024/03/07 07:30:12;;;;;;;25.93;17.07;;;;;;;2.74;100.00;103224.63;5031440;28;20828;-68
2024/03/07 07:32:39;;;;;;;27.83;17.70;;;;;;;2.69;100.00;103213.44;5026171;28;20302;-68
2024/03/07 07:35:11;;;;;;;26.80;17.80;;;;;;;2.78;100.00;103227.94;5028874;28;20578;-68
2024/03/07 07:37:38;;;;;;;25.40;17.40;;;;;;;2.48;100.00;103158.09;5022689;28;20473;-68
2024/03/07 07:40:03;;;;;;;26.67;18.17;;;;;;;2.67;100.00;103207.41;5024751;28;20446;-69
2024/03/07 07:42:29;;;;;;;27.53;18.30;;;;;;;2.85;100.00;103201.00;5027103;28;20446;-69
2024/03/07 07:44:55;;;;;;;28.77;18.33;;;;;;;2.76;100.00;103171.56;5024803;28;20218;-68
2024/03/07 07:47:20;;;;;;;26.10;17.13;;;;;;;2.16;100.00;103069.94;5026078;28;20199;-68
2024/03/07 07:49:45;;;;;;;25.57;16.90;;;;;;;3.11;100.00;103217.16;5027387;28;20238;-68
2024/03/07 07:52:11;;;;;;;26.67;18.40;;;;;;;2.91;100.00;103197.13;5026075;28;20211;-68
2024/03/07 07:54:42;;;;;;;25.10;18.17;;;;;;;2.73;100.00;103130.19;5021444;28;20278;-68
2024/03/07 07:57:08;;;;;;;27.20;18.37;;;;;;;3.04;100.00;103163.66;5027971;28;20992;-68
2024/03/07 07:59:33;;;;;;;24.33;16.53;;;;;;;2.49;100.00;103079.50;5023214;28;20450;-68
2024/03/07 08:01:58;;;;;;;27.40;17.57;;;;;;;2.36;100.00;103025.53;5022440;28;20233;-68
2024/03/07 08:04:24;;;;;;;28.13;16.80;;;;;;;2.51;100.00;103029.06;5028293;28;20184;-68
2024/03/07 08:06:49;;;;;;;23.33;16.77;;;;;;;2.75;100.00;103064.69;5024177;28;20191;-68
2024/03/07 08:09:16;;;;;;;25.73;16.80;;;;;;;2.55;100.00;103030.59;5024247;28;20199;-68
2024/03/07 08:11:42;;;;;;;23.90;16.00;;;;;;;2.82;100.00;103065.16;5033539;28;20227;-68
2024/03/07 08:14:08;;;;;;;23.87;16.27;;;;;;;2.83;100.00;103059.75;5029327;28;20819;-68
2024/03/07 08:16:33;;;;;;;21.60;15.50;;;;;;;2.66;100.00;103025.47;5023404;28;20861;-69
2024/03/07 08:18:59;;;;;;;25.10;16.30;;;;;;;3.14;100.00;103102.94;5027892;28;20192;-68
2024/03/07 08:21:24;;;;;;;23.43;16.50;;;;;;;2.30;100.00;102923.47;5025811;28;20318;-68
2024/03/07 08:23:50;;;;;;;24.30;15.87;;;;;;;3.21;100.00;103058.31;5024621;28;20192;-68
2024/03/07 08:26:18;;;;;;;22.83;16.30;;;;;;;2.71;100.00;102963.31;5023641;28;20199;-68
2024/03/07 08:28:43;;;;;;;23.60;16.23;;;;;;;2.49;100.00;102921.41;5022009;28;20272;-68
2024/03/07 08:31:09;;;;;;;20.87;14.80;;;;;;;3.12;100.00;103007.56;5023260;28;20949;-68
2024/03/07 08:33:35;;;;;;;24.70;16.20;;;;;;;3.26;100.00;103001.38;5021864;28;20184;-68
2024/03/07 08:36:00;;;;;;;25.30;17.20;;;;;;;3.27;100.00;102992.50;5025292;28;20211;-68
2024/03/07 08:38:26;;;;;;;26.07;17.43;;;;;;;3.33;100.00;102970.88;5021576;28;20246;-68
2024/03/07 08:40:52;;;;;;;22.60;15.70;;;;;;;3.54;100.00;102994.31;5024676;28;20223;-68
2024/03/07 08:43:17;;;;;;;29.00;15.70;;;;;;;3.60;100.00;102985.94;5022327;28;20446;-68
2024/03/07 08:45:43;;;;;;;25.43;17.27;;;;;;;3.57;100.00;102949.00;5020695;28;20919;-68
2024/03/07 08:48:13;;;;;;;27.40;16.97;;;;;;;3.74;100.00;102964.66;5026861;28;20191;-68
2024/03/07 08:50:38;;;;;;;25.67;17.73;;;;;;;3.56;100.00;102926.09;5023734;28;20218;-68
2024/03/07 08:53:07;;;;;;;26.50;17.50;;;;;;;2.91;100.00;102826.03;5027410;28;20450;-68
2024/03/07 08:55:32;;;;;;;29.20;18.07;;;;;;;3.48;100.00;102877.97;5020012;28;20196;-68
2024/03/07 08:57:58;;;;;;;28.10;18.10;;;;;;;3.93;100.00;102918.28;5022082;28;20467;-68
2024/03/07 09:00:23;;;;;;;26.57;16.50;;;;;;;3.99;100.00;102921.41;5026551;28;20246;-68
2024/03/07 09:02:53;;;;;;;24.53;17.30;;;;;;;3.89;100.00;102895.56;5022486;28;20198;-68
2024/03/07 09:05:20;;;;;;;25.13;16.93;;;;;;;3.96;100.00;102879.09;5025318;28;20199;-68
2024/03/07 09:07:46;;;;;;;24.73;18.13;;;;;;;3.54;100.00;102819.19;5026356;28;20443;-68
2024/03/07 09:10:14;;;;;;;35.90;24.50;;;;;;;3.54;100.00;102788.19;5022148;28;20842;-68
2024/03/07 09:12:40;;;;;;;30.93;18.93;;;;;;;3.98;100.00;102845.31;5023187;28;20478;-68
2024/03/07 09:15:06;;;;;;;23.80;15.60;;;;;;;3.48;100.00;102756.78;5021225;28;20462;-68
2024/03/07 09:17:32;;;;;;;24.80;16.87;;;;;;;3.83;100.00;102806.56;5023600;28;20502;-69
2024/03/07 09:19:57;;;;;;;24.30;16.37;;;;;;;3.87;100.00;102797.41;5025241;28;20890;-68
2024/03/07 09:22:23;;;;;;;23.97;16.97;;;;;;;4.16;100.00;102816.63;5024794;28;20180;-68
2024/03/07 09:24:48;;;;;;;22.90;16.67;;;;;;;3.81;100.00;102760.69;5023404;28;20212;-68
2024/03/07 09:27:15;;;;;;;31.23;18.77;;;;;;;4.37;100.00;102802.75;5026988;28;21316;-68
2024/03/07 09:29:41;;;;;;;27.60;19.03;;;;;;;4.06;100.00;102735.91;5022103;28;20753;-68
2024/03/07 09:32:08;;;;;;;31.40;19.67;;;;;;;4.19;100.00;102742.03;5026638;28;20470;-68
2024/03/07 09:34:35;;;;;;;28.93;19.80;;;;;;;3.63;100.00;102640.75;5028408;28;20184;-68
2024/03/07 09:37:01;;;;;;;25.57;17.33;;;;;;;3.74;100.00;102648.81;5028849;28;20505;-68
2024/03/07 09:39:27;;;;;;;25.77;17.40;;;;;;;3.33;100.00;102588.91;5025448;28;20482;-68
2024/03/07 09:41:55;;;;;;;26.47;18.10;;;;;;;4.04;100.00;102716.59;5027252;28;20504;-68
2024/03/07 09:44:24;;;;;;;24.57;17.10;;;;;;;3.65;100.00;102656.59;5026841;28;20191;-68
2024/03/07 09:46:52;;;;;;;25.27;17.33;;;;;;;3.35;100.00;102615.31;5026924;28;20454;-68
2024/03/07 09:49:18;;;;;;;24.10;16.50;;;;;;;3.93;100.00;102676.66;5027596;28;20499;-68
2024/03/07 09:51:45;;;;;;;26.60;15.40;;;;;;;3.85;100.00;102666.63;5026015;28;20465;-69
2024/03/07 09:54:10;;;;;;;24.33;15.17;;;;;;;3.97;100.00;102694.94;5017080;28;20482;-68
2024/03/07 09:56:37;;;;;;;24.50;15.10;;;;;;;4.07;100.00;102706.59;5022668;28;20557;-68
2024/03/07 09:59:04;;;;;;;25.47;16.37;;;;;;;4.14;100.00;102708.78;5027111;28;20184;-68
2024/03/07 10:01:34;;;;;;;25.93;14.90;;;;;;;4.08;100.00;102718.91;5029751;28;20468;-68
2024/03/07 10:04:14;;;;;;;24.23;15.20;;;;;;;3.90;100.00;102661.81;5028436;28;20526;-68
2024/03/07 10:06:40;;;;;;;20.17;14.57;;;;;;;4.34;100.00;102736.56;5025701;28;20456;-68
2024/03/07 10:09:07;;;;;;;21.97;14.47;;;;;;;4.16;100.00;102689.13;5029756;28;20438;-68
2024/03/07 10:11:33;;;;;;;20.87;13.80;;;;;;;4.20;100.00;102709.22;5023631;28;20472;-68
2024/03/07 10:13:59;;;;;;;20.17;13.97;;;;;;;3.99;100.00;102697.47;5025351;28;20999;-68
2024/03/07 10:16:24;;;;;;;23.47;15.20;;;;;;;4.12;100.00;102685.00;5028340;28;20434;-69
2024/03/07 10:18:50;;;;;;;23.23;14.63;;;;;;;4.30;100.00;102704.06;5030070;28;20732;-69
2024/03/07 10:21:19;;;;;;;24.27;15.63;;;;;;;3.69;100.00;102647.44;5028220;28;20238;-68
2024/03/07 10:23:45;;;;;;;22.23;14.77;;;;;;;4.16;100.00;102697.09;5037301;28;20191;-68
2024/03/07 10:26:11;;;;;;;22.40;15.10;;;;;;;4.22;100.00;102696.69;5026638;28;20435;-69
2024/03/07 10:28:38;;;;;;;22.20;14.77;;;;;;;3.80;100.00;102627.13;5028301;28;20180;-68
2024/03/07 10:31:09;;;;;;;21.50;14.00;;;;;;;4.26;100.00;102700.78;5030944;28;20207;-68
2024/03/07 10:33:34;;;;;;;24.33;15.27;;;;;;;3.57;100.00;102596.94;5023188;28;20467;-68
2024/03/07 10:36:01;;;;;;;21.10;14.50;;;;;;;4.34;100.00;102707.34;5028986;28;20987;-68
2024/03/07 10:38:27;;;;;;;21.77;14.63;;;;;;;4.37;100.00;102708.00;5026941;28;20201;-68
2024/03/07 10:40:55;;;;;;;21.97;14.13;;;;;;;3.55;100.00;102560.84;5025051;28;20478;-68
2024/03/07 10:43:21;;;;;;;21.03;14.47;;;;;;;3.99;100.00;102607.19;5025419;28;20776;-68
2024/03/07 10:45:48;;;;;;;21.67;13.83;;;;;;;4.39;100.00;102662.69;5027879;28;20457;-68
2024/03/07 10:48:17;;;;;;;22.60;14.93;;;;;;;3.95;100.00;102555.28;5023679;28;20501;-68
2024/03/07 10:50:47;;;;;;;21.93;13.87;;;;;;;4.58;100.00;102646.25;5020807;28;20521;-68
2024/03/07 10:53:15;;;;;;;21.77;13.60;;;;;;;4.67;100.00;102638.41;5020907;28;20474;-68
2024/03/07 10:56:11;;;;;;;23.73;14.90;;;;;;;4.43;100.00;102603.06;5024811;28;20447;-68
2024/03/07 10:58:56;;;;;;;20.63;13.50;;;;;;;4.49;100.00;102602.59;5021186;28;20471;-68
2024/03/07 11:01:24;;;;;;;22.40;14.20;;;;;;;4.61;100.00;102608.78;5023460;28;20474;-68
2024/03/07 11:03:52;;;;;;;20.93;14.07;;;;;;;4.71;100.00;102594.66;5022917;28;20482;-68
2024/03/07 11:06:19;;;;;;;20.10;12.37;;;;;;;4.61;100.00;102555.66;5014814;28;20482;-69
2024/03/07 11:08:45;;;;;;;21.70;13.57;;;;;;;4.75;100.00;102545.63;5022983;28;20449;-69
2024/03/07 11:11:12;;;;;;;21.77;13.57;;;;;;;4.88;100.00;102531.38;5023837;28;20463;-69
2024/03/07 11:13:38;;;;;;;20.50;12.83;;;;;;;5.39;100.00;102529.06;5023012;28;20791;-68
2024/03/07 11:16:06;;;;;;;20.00;13.40;;;;;;;5.68;100.00;102503.72;5027216;28;20448;-68